DLH469 OMDB-EDDM
Flight info
| Callsign | DLH469 |
|---|---|
| Flight time | N/A |
| Altitude | 36000 |
| Route | RIDAP M557 TUMAK L602 GADSI M860 SEPTU DCT VUSEB M860 NINVA UM860 TALIL/N0484F380 UM860 ODALI UL852 NEGEM DCT BULEN DCT DIRER DCT TISAK DCT BABIT DCT GOTAR DCT AMADI Q113 NAPSA NAPSA1B |
| Aircraft | A346/H-SDE2E3FGHIJ3J4J5M1RWXY/LB1D1 |
Departure
| Time | 2026-04-24 12:05 |
|---|---|
| Airport | Dubai International Airport (OMDB) |
Arrival
| Time | N/A |
|---|---|
| Airport | Munich Airport (EDDM) |
| Time | Latitude | Longitude | Altitude | Speed | Heading |
|---|---|---|---|---|---|
| 2026-04-24 11:32 | 25.24440 | 55.37222 | 49 ft | 0 kts | 212° |
| 2026-04-24 11:53 | 25.24444 | 55.37224 | 49 ft | 2 kts | 212° |
| 2026-04-24 11:53 | 25.24453 | 55.37231 | 49 ft | 0 kts | 212° |
| 2026-04-24 11:54 | 25.24464 | 55.37238 | 49 ft | 2 kts | 204° |
| 2026-04-24 11:54 | 25.24479 | 55.37243 | 49 ft | 2 kts | 189° |
| 2026-04-24 11:54 | 25.24493 | 55.37244 | 49 ft | 2 kts | 177° |
| 2026-04-24 11:54 | 25.24508 | 55.37242 | 49 ft | 2 kts | 165° |
| 2026-04-24 11:55 | 25.24522 | 55.37237 | 49 ft | 2 kts | 153° |
| 2026-04-24 11:55 | 25.24534 | 55.37229 | 49 ft | 2 kts | 142° |
| 2026-04-24 11:55 | 25.24545 | 55.37218 | 49 ft | 2 kts | 130° |
| 2026-04-24 11:55 | 25.24552 | 55.37209 | 49 ft | 0 kts | 121° |
| 2026-04-24 11:56 | 25.24553 | 55.37206 | 49 ft | 0 kts | 120° |
| 2026-04-24 11:59 | 25.24551 | 55.37210 | 49 ft | 2 kts | 120° |
| 2026-04-24 11:59 | 25.24536 | 55.37236 | 49 ft | 5 kts | 122° |
| 2026-04-24 11:59 | 25.24509 | 55.37284 | 49 ft | 9 kts | 122° |
| 2026-04-24 12:00 | 25.24470 | 55.37353 | 49 ft | 11 kts | 122° |
| 2026-04-24 12:00 | 25.24435 | 55.37442 | 49 ft | 13 kts | 101° |
| 2026-04-24 12:00 | 25.24429 | 55.37553 | 49 ft | 15 kts | 93° |
| 2026-04-24 12:00 | 25.24397 | 55.37669 | 49 ft | 16 kts | 118° |
| 2026-04-24 12:01 | 25.24345 | 55.37781 | 49 ft | 14 kts | 94° |
| 2026-04-24 12:01 | 25.24385 | 55.37851 | 49 ft | 11 kts | 39° |
| 2026-04-24 12:01 | 25.24457 | 55.37909 | 49 ft | 13 kts | 35° |
| 2026-04-24 12:01 | 25.24537 | 55.37970 | 49 ft | 14 kts | 34° |
| 2026-04-24 12:02 | 25.24602 | 55.38018 | 49 ft | 5 kts | 34° |
| 2026-04-24 12:02 | 25.24610 | 55.38024 | 49 ft | 1 kts | 34° |
| 2026-04-24 12:02 | 25.24633 | 55.38041 | 49 ft | 5 kts | 32° |
| 2026-04-24 12:02 | 25.24678 | 55.38071 | 49 ft | 9 kts | 31° |
| 2026-04-24 12:03 | 25.24747 | 55.38091 | 49 ft | 10 kts | 348° |
| 2026-04-24 12:03 | 25.24804 | 55.38029 | 49 ft | 11 kts | 303° |
| 2026-04-24 12:03 | 25.24822 | 55.37997 | 49 ft | 0 kts | 301° |
| 2026-04-24 12:04 | 25.24823 | 55.37996 | 49 ft | 3 kts | 301° |
| 2026-04-24 12:04 | 25.24893 | 55.37870 | 49 ft | 45 kts | 301° |
| 2026-04-24 12:04 | 25.25177 | 55.37362 | 49 ft | 106 kts | 301° |
| 2026-04-24 12:04 | 25.25653 | 55.36502 | 49 ft | 155 kts | 302° |
| 2026-04-24 12:05 | 25.26286 | 55.35350 | 176 ft | 183 kts | 302° |
| 2026-04-24 12:05 | 25.26935 | 55.34173 | 679 ft | 180 kts | 302° |
| 2026-04-24 12:05 | 25.27593 | 55.32997 | 1163 ft | 183 kts | 302° |
| 2026-04-24 12:05 | 25.28268 | 55.31793 | 1666 ft | 185 kts | 302° |
| 2026-04-24 12:06 | 25.28948 | 55.30577 | 1993 ft | 193 kts | 302° |
| 2026-04-24 12:06 | 25.29682 | 55.29297 | 2187 ft | 203 kts | 305° |
| 2026-04-24 12:06 | 25.30516 | 55.27976 | 2369 ft | 217 kts | 306° |
| 2026-04-24 12:06 | 25.31425 | 55.26551 | 2595 ft | 231 kts | 305° |
| 2026-04-24 12:07 | 25.32372 | 55.25067 | 2852 ft | 246 kts | 305° |
| 2026-04-24 12:07 | 25.33380 | 55.23484 | 3283 ft | 253 kts | 305° |
| 2026-04-24 12:07 | 25.34378 | 55.21917 | 3840 ft | 254 kts | 304° |
| 2026-04-24 12:07 | 25.35262 | 55.20504 | 4352 ft | 255 kts | 300° |
| 2026-04-24 12:08 | 25.35859 | 55.18644 | 4911 ft | 257 kts | 275° |
| 2026-04-24 12:08 | 25.35855 | 55.16635 | 5296 ft | 268 kts | 266° |
| 2026-04-24 12:08 | 25.35756 | 55.14570 | 5860 ft | 273 kts | 266° |
| 2026-04-24 12:08 | 25.35657 | 55.12485 | 6590 ft | 274 kts | 266° |
| 2026-04-24 12:09 | 25.35566 | 55.10393 | 7257 ft | 277 kts | 266° |
| 2026-04-24 12:09 | 25.35482 | 55.08277 | 7962 ft | 279 kts | 266° |
| 2026-04-24 12:09 | 25.35400 | 55.06139 | 8633 ft | 281 kts | 267° |
| 2026-04-24 12:09 | 25.35319 | 55.03964 | 9337 ft | 283 kts | 266° |
| 2026-04-24 12:10 | 25.35240 | 55.01800 | 10007 ft | 285 kts | 266° |
| 2026-04-24 12:10 | 25.35159 | 54.99601 | 10514 ft | 292 kts | 266° |
| 2026-04-24 12:10 | 25.35074 | 54.97312 | 10797 ft | 308 kts | 266° |
| 2026-04-24 12:11 | 25.34967 | 54.92337 | 11376 ft | 340 kts | 272° |
| 2026-04-24 12:11 | 25.35269 | 54.89698 | 11635 ft | 356 kts | 280° |
| 2026-04-24 12:11 | 25.35921 | 54.86984 | 11906 ft | 372 kts | 285° |
| 2026-04-24 12:11 | 25.36709 | 54.84225 | 12364 ft | 380 kts | 286° |
| 2026-04-24 12:12 | 25.37514 | 54.81459 | 13010 ft | 383 kts | 286° |
| 2026-04-24 12:12 | 25.38603 | 54.77703 | 13900 ft | 385 kts | 286° |
| 2026-04-24 12:12 | 25.39133 | 54.75855 | 14323 ft | 387 kts | 286° |
| 2026-04-24 12:12 | 25.39952 | 54.72988 | 14941 ft | 390 kts | 286° |
| 2026-04-24 12:13 | 25.40759 | 54.70161 | 15538 ft | 392 kts | 287° |
| 2026-04-24 12:13 | 25.41581 | 54.67277 | 16136 ft | 395 kts | 287° |
| 2026-04-24 12:13 | 25.42408 | 54.64368 | 16714 ft | 398 kts | 287° |
| 2026-04-24 12:13 | 25.43238 | 54.61459 | 17277 ft | 400 kts | 287° |
| 2026-04-24 12:14 | 25.44103 | 54.58512 | 17842 ft | 403 kts | 288° |
| 2026-04-24 12:14 | 25.44974 | 54.55590 | 18361 ft | 406 kts | 288° |
| 2026-04-24 12:14 | 25.45860 | 54.52618 | 18868 ft | 410 kts | 287° |
| 2026-04-24 12:14 | 25.46757 | 54.49603 | 19388 ft | 413 kts | 287° |
| 2026-04-24 12:15 | 25.47650 | 54.46589 | 19906 ft | 415 kts | 287° |
| 2026-04-24 12:15 | 25.48546 | 54.43554 | 20389 ft | 418 kts | 287° |
| 2026-04-24 12:15 | 25.49445 | 54.40503 | 20859 ft | 422 kts | 287° |
| 2026-04-24 12:15 | 25.50360 | 54.37394 | 21347 ft | 424 kts | 286° |
| 2026-04-24 12:16 | 25.51278 | 54.34272 | 21815 ft | 427 kts | 285° |
| 2026-04-24 12:16 | 25.52195 | 54.31147 | 22286 ft | 430 kts | 286° |
| 2026-04-24 12:16 | 25.53109 | 54.28035 | 22729 ft | 433 kts | 285° |
| 2026-04-24 12:16 | 25.54039 | 54.24860 | 23180 ft | 436 kts | 285° |
| 2026-04-24 12:17 | 25.54978 | 54.21659 | 23640 ft | 439 kts | 285° |
| 2026-04-24 12:17 | 25.55917 | 54.18462 | 24125 ft | 441 kts | 286° |
| 2026-04-24 12:17 | 25.56868 | 54.15218 | 24599 ft | 443 kts | 286° |
| 2026-04-24 12:17 | 25.57816 | 54.11984 | 25058 ft | 445 kts | 285° |
| 2026-04-24 12:18 | 25.58767 | 54.08736 | 25504 ft | 447 kts | 286° |
| 2026-04-24 12:18 | 25.59723 | 54.05455 | 25936 ft | 450 kts | 285° |
| 2026-04-24 12:18 | 25.60669 | 54.02158 | 26362 ft | 452 kts | 285° |
| 2026-04-24 12:18 | 25.61624 | 53.98816 | 26814 ft | 454 kts | 285° |
| 2026-04-24 12:19 | 25.62570 | 53.95487 | 27228 ft | 457 kts | 285° |
| 2026-04-24 12:19 | 25.63524 | 53.92135 | 27647 ft | 459 kts | 285° |
| 2026-04-24 12:19 | 25.64488 | 53.88746 | 28074 ft | 461 kts | 285° |
| 2026-04-24 12:19 | 25.65451 | 53.85350 | 28459 ft | 464 kts | 285° |
| 2026-04-24 12:20 | 25.66410 | 53.81969 | 28843 ft | 466 kts | 285° |
| 2026-04-24 12:20 | 25.67389 | 53.78518 | 29217 ft | 468 kts | 285° |
| 2026-04-24 12:20 | 25.68350 | 53.75124 | 29747 ft | 467 kts | 285° |
| 2026-04-24 12:20 | 25.69325 | 53.71674 | 30349 ft | 463 kts | 285° |
| 2026-04-24 12:21 | 25.70279 | 53.68300 | 30957 ft | 459 kts | 285° |
| 2026-04-24 12:21 | 25.71215 | 53.64969 | 31496 ft | 457 kts | 285° |
| 2026-04-24 12:21 | 25.72157 | 53.61615 | 32019 ft | 454 kts | 285° |
| 2026-04-24 12:21 | 25.73086 | 53.58300 | 32536 ft | 451 kts | 285° |
| 2026-04-24 12:22 | 25.74009 | 53.55000 | 33016 ft | 449 kts | 285° |
| 2026-04-24 12:22 | 25.74928 | 53.51718 | 33449 ft | 448 kts | 285° |
| 2026-04-24 12:22 | 25.75857 | 53.48406 | 33957 ft | 445 kts | 286° |
| 2026-04-24 12:22 | 25.76767 | 53.45168 | 34453 ft | 442 kts | 286° |
| 2026-04-24 12:23 | 25.77687 | 53.41898 | 34863 ft | 441 kts | 286° |
| 2026-04-24 12:23 | 25.78591 | 53.38678 | 35220 ft | 440 kts | 285° |
| 2026-04-24 12:23 | 25.79496 | 53.35446 | 35481 ft | 441 kts | 285° |
| 2026-04-24 12:23 | 25.80401 | 53.32210 | 35743 ft | 441 kts | 285° |
| 2026-04-24 12:24 | 25.81305 | 53.28970 | 35817 ft | 441 kts | 285° |
| 2026-04-24 12:24 | 25.83118 | 53.22474 | 35833 ft | 441 kts | 286° |
| 2026-04-24 12:25 | 25.85250 | 53.16098 | 35832 ft | 443 kts | 291° |
| 2026-04-24 12:25 | 25.87753 | 53.09885 | 35841 ft | 442 kts | 292° |
| 2026-04-24 12:26 | 25.90286 | 53.03657 | 35852 ft | 442 kts | 292° |
| 2026-04-24 12:26 | 25.92817 | 52.97428 | 35849 ft | 445 kts | 292° |
| 2026-04-24 12:27 | 25.95352 | 52.91174 | 35857 ft | 444 kts | 291° |
| 2026-04-24 12:27 | 25.97877 | 52.84933 | 35853 ft | 443 kts | 292° |
| 2026-04-24 12:28 | 26.00400 | 52.78686 | 35855 ft | 444 kts | 291° |
| 2026-04-24 12:28 | 26.03025 | 52.72481 | 35857 ft | 445 kts | 294° |
| 2026-04-24 12:29 | 26.05788 | 52.66344 | 35859 ft | 443 kts | 294° |
| 2026-04-24 12:29 | 26.08538 | 52.60234 | 35858 ft | 444 kts | 294° |
| 2026-04-24 12:30 | 26.11276 | 52.54135 | 35855 ft | 443 kts | 293° |
| 2026-04-24 12:30 | 26.14054 | 52.47978 | 35860 ft | 443 kts | 294° |
| 2026-04-24 12:31 | 26.16800 | 52.41895 | 35858 ft | 443 kts | 293° |
| 2026-04-24 12:31 | 26.19542 | 52.35788 | 35856 ft | 442 kts | 293° |
| 2026-04-24 12:32 | 26.22287 | 52.29665 | 35860 ft | 442 kts | 293° |
| 2026-04-24 12:32 | 26.24970 | 52.23495 | 35862 ft | 442 kts | 292° |
| 2026-04-24 12:33 | 26.27616 | 52.17358 | 35863 ft | 443 kts | 292° |
| 2026-04-24 12:33 | 26.30279 | 52.11183 | 35862 ft | 442 kts | 292° |
| 2026-04-24 12:34 | 26.32940 | 52.05019 | 35858 ft | 441 kts | 292° |
| 2026-04-24 12:34 | 26.35583 | 51.98905 | 35857 ft | 441 kts | 292° |
| 2026-04-24 12:35 | 26.38097 | 51.92648 | 35847 ft | 440 kts | 288° |
| 2026-04-24 12:35 | 26.40248 | 51.86311 | 35852 ft | 440 kts | 287° |
| 2026-04-24 12:36 | 26.42398 | 51.79905 | 35854 ft | 439 kts | 287° |
| 2026-04-24 12:36 | 26.44532 | 51.73528 | 35859 ft | 439 kts | 287° |
| 2026-04-24 12:37 | 26.46655 | 51.67182 | 35857 ft | 440 kts | 287° |
| 2026-04-24 12:37 | 26.48798 | 51.60775 | 35857 ft | 441 kts | 287° |
| 2026-04-24 12:38 | 26.50927 | 51.54390 | 35858 ft | 441 kts | 287° |
| 2026-04-24 12:38 | 26.53052 | 51.48001 | 35860 ft | 441 kts | 287° |
| 2026-04-24 12:39 | 26.57280 | 51.35229 | 35866 ft | 440 kts | 287° |
| 2026-04-24 12:40 | 26.59400 | 51.28816 | 35876 ft | 440 kts | 286° |
| 2026-04-24 12:40 | 26.61518 | 51.22432 | 35876 ft | 439 kts | 287° |
| 2026-04-24 12:41 | 26.63633 | 51.16044 | 35881 ft | 440 kts | 286° |
| 2026-04-24 12:41 | 26.65750 | 51.09631 | 35878 ft | 440 kts | 286° |
| 2026-04-24 12:42 | 26.67854 | 51.03244 | 35887 ft | 440 kts | 286° |
| 2026-04-24 12:42 | 26.69931 | 50.96855 | 35890 ft | 439 kts | 285° |
| 2026-04-24 12:43 | 26.71971 | 50.90466 | 35884 ft | 438 kts | 285° |
| 2026-04-24 12:43 | 26.74017 | 50.84047 | 35883 ft | 438 kts | 286° |
| 2026-04-24 12:44 | 26.76070 | 50.77616 | 35885 ft | 438 kts | 285° |
| 2026-04-24 12:44 | 26.78351 | 50.71287 | 35884 ft | 441 kts | 290° |
| 2026-04-24 12:45 | 26.81161 | 50.65203 | 35889 ft | 443 kts | 295° |
| 2026-04-24 12:45 | 26.84491 | 50.59399 | 35890 ft | 447 kts | 300° |
| 2026-04-24 12:46 | 26.88303 | 50.53891 | 35888 ft | 451 kts | 303° |
| 2026-04-24 12:46 | 26.92344 | 50.48489 | 35894 ft | 453 kts | 306° |
| 2026-04-24 12:47 | 26.96632 | 50.43351 | 35890 ft | 454 kts | 307° |
| 2026-04-24 12:47 | 27.00979 | 50.38182 | 35891 ft | 453 kts | 307° |
| 2026-04-24 12:48 | 27.05272 | 50.33068 | 35893 ft | 453 kts | 306° |
| 2026-04-24 12:48 | 27.09557 | 50.27900 | 35890 ft | 452 kts | 306° |
| 2026-04-24 12:49 | 27.13859 | 50.22803 | 35886 ft | 454 kts | 309° |
| 2026-04-24 12:49 | 27.18599 | 50.18049 | 35891 ft | 459 kts | 314° |
| 2026-04-24 12:50 | 27.23705 | 50.13714 | 35889 ft | 460 kts | 316° |
| 2026-04-24 12:50 | 27.28885 | 50.09437 | 35893 ft | 461 kts | 316° |
| 2026-04-24 12:51 | 27.34043 | 50.05174 | 35894 ft | 461 kts | 316° |
| 2026-04-24 12:51 | 27.39153 | 50.00847 | 35899 ft | 459 kts | 315° |
| 2026-04-24 12:52 | 27.44171 | 49.96420 | 35900 ft | 458 kts | 314° |
| 2026-04-24 12:52 | 27.49176 | 49.91995 | 35904 ft | 459 kts | 314° |
| 2026-04-24 12:53 | 27.54185 | 49.87578 | 35905 ft | 458 kts | 314° |
| 2026-04-24 12:53 | 27.59214 | 49.83141 | 35911 ft | 459 kts | 314° |
| 2026-04-24 12:54 | 27.64226 | 49.78709 | 35911 ft | 458 kts | 314° |
| 2026-04-24 12:54 | 27.69235 | 49.74275 | 35917 ft | 457 kts | 314° |
| 2026-04-24 12:55 | 27.74209 | 49.69868 | 35910 ft | 457 kts | 314° |
| 2026-04-24 12:55 | 27.79218 | 49.65424 | 35915 ft | 459 kts | 314° |
| 2026-04-24 12:56 | 27.84230 | 49.60962 | 35909 ft | 458 kts | 314° |
| 2026-04-24 12:56 | 27.89222 | 49.56500 | 35904 ft | 456 kts | 314° |
| 2026-04-24 12:57 | 27.94204 | 49.52042 | 35907 ft | 457 kts | 314° |
| 2026-04-24 12:57 | 27.99184 | 49.47576 | 35905 ft | 457 kts | 314° |
| 2026-04-24 12:58 | 28.04157 | 49.43106 | 35901 ft | 457 kts | 314° |
| 2026-04-24 12:58 | 28.09096 | 49.38611 | 35907 ft | 456 kts | 313° |
| 2026-04-24 12:59 | 28.14031 | 49.34101 | 35906 ft | 456 kts | 313° |
| 2026-04-24 12:59 | 28.18969 | 49.29582 | 35897 ft | 455 kts | 313° |
| 2026-04-24 13:00 | 28.23892 | 49.25074 | 35896 ft | 456 kts | 313° |
| 2026-04-24 13:00 | 28.28796 | 49.20581 | 35894 ft | 455 kts | 313° |
| 2026-04-24 13:01 | 28.33717 | 49.16069 | 35892 ft | 454 kts | 313° |
| 2026-04-24 13:01 | 28.38637 | 49.11578 | 35893 ft | 458 kts | 314° |
| 2026-04-24 13:02 | 28.43895 | 49.07368 | 35893 ft | 460 kts | 318° |
| 2026-04-24 13:02 | 28.49209 | 49.03302 | 35896 ft | 461 kts | 318° |
| 2026-04-24 13:03 | 28.54503 | 48.99249 | 35896 ft | 462 kts | 317° |
| 2026-04-24 13:03 | 28.59820 | 48.95165 | 35891 ft | 461 kts | 317° |
| 2026-04-24 13:04 | 28.65141 | 48.91070 | 35892 ft | 462 kts | 318° |
| 2026-04-24 13:04 | 28.70453 | 48.86977 | 35899 ft | 462 kts | 317° |
| 2026-04-24 13:05 | 28.75771 | 48.82872 | 35896 ft | 461 kts | 317° |
| 2026-04-24 13:05 | 28.81086 | 48.78769 | 35895 ft | 462 kts | 318° |
| 2026-04-24 13:06 | 28.86402 | 48.74704 | 35899 ft | 462 kts | 318° |
| 2026-04-24 13:06 | 28.91736 | 48.70626 | 35897 ft | 461 kts | 318° |
| 2026-04-24 13:07 | 28.97091 | 48.66519 | 35898 ft | 463 kts | 318° |
| 2026-04-24 13:07 | 29.02411 | 48.62433 | 35890 ft | 461 kts | 317° |
| 2026-04-24 13:08 | 29.07727 | 48.58339 | 35887 ft | 461 kts | 318° |
| 2026-04-24 13:08 | 29.13037 | 48.54249 | 35880 ft | 460 kts | 318° |
| 2026-04-24 13:09 | 29.20972 | 48.48124 | 35888 ft | 461 kts | 318° |
| 2026-04-24 13:09 | 29.26287 | 48.44013 | 35892 ft | 460 kts | 318° |
| 2026-04-24 13:10 | 29.31575 | 48.39917 | 35893 ft | 460 kts | 318° |
| 2026-04-24 13:10 | 29.36861 | 48.35816 | 35892 ft | 459 kts | 318° |
| 2026-04-24 13:11 | 29.42174 | 48.31696 | 35887 ft | 461 kts | 319° |
| 2026-04-24 13:11 | 29.47671 | 48.27899 | 35896 ft | 464 kts | 322° |
| 2026-04-24 13:12 | 29.53283 | 48.24215 | 35885 ft | 466 kts | 322° |
| 2026-04-24 13:12 | 29.58911 | 48.20521 | 35882 ft | 464 kts | 322° |
| 2026-04-24 13:13 | 29.64511 | 48.16829 | 35881 ft | 465 kts | 322° |
| 2026-04-24 13:13 | 29.70123 | 48.13126 | 35879 ft | 465 kts | 322° |
| 2026-04-24 13:14 | 29.75723 | 48.09421 | 35887 ft | 465 kts | 322° |
| 2026-04-24 13:14 | 29.81343 | 48.05700 | 35881 ft | 466 kts | 322° |
| 2026-04-24 13:15 | 29.86950 | 48.01976 | 35885 ft | 465 kts | 322° |
| 2026-04-24 13:15 | 29.92543 | 47.98266 | 35891 ft | 465 kts | 322° |
| 2026-04-24 13:16 | 29.97991 | 47.94272 | 35894 ft | 460 kts | 317° |
| 2026-04-24 13:16 | 30.02981 | 47.89743 | 35890 ft | 454 kts | 311° |
| 2026-04-24 13:17 | 30.07494 | 47.84731 | 35892 ft | 448 kts | 306° |
| 2026-04-24 13:17 | 30.11613 | 47.79348 | 35890 ft | 447 kts | 304° |
| 2026-04-24 13:18 | 30.15650 | 47.73957 | 35894 ft | 448 kts | 304° |
| 2026-04-24 13:18 | 30.19711 | 47.68523 | 35895 ft | 447 kts | 303° |
| 2026-04-24 13:19 | 30.23776 | 47.63075 | 35896 ft | 446 kts | 304° |
| 2026-04-24 13:19 | 30.27822 | 47.57649 | 35894 ft | 448 kts | 303° |
| 2026-04-24 13:20 | 30.31899 | 47.52171 | 35890 ft | 448 kts | 303° |
| 2026-04-24 13:20 | 30.35938 | 47.46742 | 35893 ft | 448 kts | 303° |
| 2026-04-24 13:21 | 30.39993 | 47.41278 | 35891 ft | 448 kts | 303° |
| 2026-04-24 13:21 | 30.44056 | 47.35797 | 35891 ft | 448 kts | 303° |
| 2026-04-24 13:22 | 30.48113 | 47.30312 | 35889 ft | 449 kts | 302° |
| 2026-04-24 13:22 | 30.52204 | 47.24784 | 35886 ft | 451 kts | 302° |
| 2026-04-24 13:23 | 30.56477 | 47.19428 | 35879 ft | 455 kts | 307° |
| 2026-04-24 13:23 | 30.61227 | 47.14526 | 35883 ft | 464 kts | 312° |
| 2026-04-24 13:24 | 30.66244 | 47.09826 | 35882 ft | 464 kts | 312° |
| 2026-04-24 13:24 | 30.71304 | 47.05106 | 35872 ft | 464 kts | 312° |
| 2026-04-24 13:25 | 30.76325 | 47.00417 | 35875 ft | 466 kts | 312° |
| 2026-04-24 13:25 | 30.81357 | 46.95699 | 35869 ft | 467 kts | 312° |
| 2026-04-24 13:26 | 30.86424 | 46.90948 | 35866 ft | 466 kts | 312° |
| 2026-04-24 13:26 | 30.91454 | 46.86218 | 35870 ft | 469 kts | 312° |
| 2026-04-24 13:27 | 30.96527 | 46.81446 | 35870 ft | 468 kts | 312° |
| 2026-04-24 13:27 | 31.01584 | 46.76678 | 35869 ft | 470 kts | 312° |
| 2026-04-24 13:28 | 31.06634 | 46.71908 | 35869 ft | 471 kts | 311° |
| 2026-04-24 13:28 | 31.11757 | 46.67070 | 35866 ft | 472 kts | 311° |
| 2026-04-24 13:29 | 31.16803 | 46.62298 | 35865 ft | 467 kts | 312° |
| 2026-04-24 13:29 | 31.21845 | 46.57520 | 35869 ft | 466 kts | 312° |
| 2026-04-24 13:30 | 31.26866 | 46.52755 | 35867 ft | 467 kts | 311° |
| 2026-04-24 13:30 | 31.31925 | 46.47946 | 35865 ft | 467 kts | 311° |
| 2026-04-24 13:31 | 31.36957 | 46.43154 | 35864 ft | 469 kts | 312° |
| 2026-04-24 13:31 | 31.41977 | 46.38366 | 35866 ft | 468 kts | 312° |
| 2026-04-24 13:32 | 31.47021 | 46.33552 | 35866 ft | 466 kts | 311° |
| 2026-04-24 13:32 | 31.52041 | 46.28754 | 35866 ft | 465 kts | 311° |
| 2026-04-24 13:33 | 31.56811 | 46.24189 | 35863 ft | 465 kts | 310° |
| 2026-04-24 13:33 | 31.61824 | 46.19377 | 35853 ft | 464 kts | 311° |
| 2026-04-24 13:34 | 31.66827 | 46.14570 | 35855 ft | 465 kts | 311° |
| 2026-04-24 13:34 | 31.71810 | 46.09773 | 35855 ft | 463 kts | 311° |
| 2026-04-24 13:35 | 31.76758 | 46.04988 | 35853 ft | 462 kts | 310° |
| 2026-04-24 13:35 | 31.81673 | 46.00131 | 35856 ft | 460 kts | 310° |
| 2026-04-24 13:36 | 31.86531 | 45.95308 | 35852 ft | 459 kts | 310° |
| 2026-04-24 13:36 | 31.91398 | 45.90468 | 35854 ft | 457 kts | 310° |
| 2026-04-24 13:37 | 31.96276 | 45.85617 | 35855 ft | 458 kts | 310° |
| 2026-04-24 13:37 | 32.01117 | 45.80791 | 35855 ft | 458 kts | 310° |
| 2026-04-24 13:38 | 32.05977 | 45.75943 | 35856 ft | 455 kts | 310° |
| 2026-04-24 13:38 | 32.10825 | 45.71099 | 35851 ft | 459 kts | 310° |
| 2026-04-24 13:39 | 32.15646 | 45.66275 | 35859 ft | 457 kts | 310° |
| 2026-04-24 13:39 | 32.20495 | 45.61412 | 35864 ft | 457 kts | 310° |
| 2026-04-24 13:40 | 32.25323 | 45.56570 | 35870 ft | 458 kts | 310° |
| 2026-04-24 13:40 | 32.30177 | 45.51692 | 35870 ft | 458 kts | 310° |
| 2026-04-24 13:41 | 32.35022 | 45.46812 | 35870 ft | 458 kts | 310° |
| 2026-04-24 13:41 | 32.39869 | 45.41924 | 35874 ft | 457 kts | 310° |
| 2026-04-24 13:42 | 32.44704 | 45.37038 | 35875 ft | 457 kts | 310° |
| 2026-04-24 13:42 | 32.49494 | 45.32192 | 35876 ft | 456 kts | 310° |
| 2026-04-24 13:43 | 32.54364 | 45.27358 | 35876 ft | 461 kts | 313° |
| 2026-04-24 13:43 | 32.59599 | 45.22941 | 35875 ft | 464 kts | 316° |
| 2026-04-24 13:44 | 32.64977 | 45.18685 | 35879 ft | 466 kts | 317° |
| 2026-04-24 13:44 | 32.70385 | 45.14398 | 35874 ft | 467 kts | 317° |
| 2026-04-24 13:45 | 32.75754 | 45.10136 | 35869 ft | 464 kts | 317° |
| 2026-04-24 13:45 | 32.81085 | 45.05891 | 35863 ft | 462 kts | 317° |
| 2026-04-24 13:46 | 32.86415 | 45.01642 | 35858 ft | 463 kts | 316° |
| 2026-04-24 13:46 | 32.91756 | 44.97376 | 35859 ft | 461 kts | 317° |
| 2026-04-24 13:47 | 32.97070 | 44.93124 | 35859 ft | 461 kts | 317° |
| 2026-04-24 13:47 | 33.02384 | 44.88865 | 35863 ft | 462 kts | 316° |
| 2026-04-24 13:48 | 33.07719 | 44.84581 | 35860 ft | 463 kts | 316° |
| 2026-04-24 13:48 | 33.13030 | 44.80322 | 35860 ft | 461 kts | 318° |
| 2026-04-24 13:49 | 33.18634 | 44.76420 | 35860 ft | 469 kts | 323° |
| 2026-04-24 13:49 | 33.24612 | 44.73169 | 35865 ft | 479 kts | 329° |
| 2026-04-24 13:50 | 33.30969 | 44.70629 | 35853 ft | 485 kts | 335° |
| 2026-04-24 13:50 | 33.37545 | 44.68643 | 35868 ft | 485 kts | 337° |
| 2026-04-24 13:51 | 33.44111 | 44.66721 | 35861 ft | 488 kts | 337° |
| 2026-04-24 13:51 | 33.50655 | 44.64802 | 35855 ft | 486 kts | 337° |
| 2026-04-24 13:52 | 33.57206 | 44.62867 | 35867 ft | 485 kts | 337° |
| 2026-04-24 13:52 | 33.63770 | 44.60922 | 35860 ft | 486 kts | 337° |
| 2026-04-24 13:53 | 33.70322 | 44.58980 | 35859 ft | 484 kts | 337° |
| 2026-04-24 13:53 | 33.76875 | 44.57032 | 35859 ft | 485 kts | 337° |
| 2026-04-24 13:54 | 33.83407 | 44.55087 | 35863 ft | 484 kts | 337° |
| 2026-04-24 13:54 | 33.89926 | 44.53140 | 35869 ft | 483 kts | 337° |
| 2026-04-24 13:55 | 33.96434 | 44.51198 | 35871 ft | 484 kts | 337° |
| 2026-04-24 13:55 | 34.02984 | 44.49240 | 35872 ft | 482 kts | 338° |
| 2026-04-24 13:56 | 34.09478 | 44.47294 | 35877 ft | 483 kts | 338° |
| 2026-04-24 13:56 | 34.15982 | 44.45343 | 35873 ft | 480 kts | 337° |
| 2026-04-24 13:57 | 34.22451 | 44.43397 | 35877 ft | 481 kts | 338° |
| 2026-04-24 13:57 | 34.28932 | 44.41444 | 35879 ft | 479 kts | 337° |
| 2026-04-24 13:58 | 34.35387 | 44.39498 | 35876 ft | 479 kts | 338° |
| 2026-04-24 13:58 | 34.41851 | 44.37545 | 35867 ft | 480 kts | 338° |
| 2026-04-24 13:59 | 34.48335 | 44.35587 | 35875 ft | 479 kts | 338° |
| 2026-04-24 13:59 | 34.54807 | 44.33624 | 35887 ft | 478 kts | 337° |
| 2026-04-24 14:00 | 34.61228 | 44.31676 | 35886 ft | 478 kts | 337° |
| 2026-04-24 14:00 | 34.67662 | 44.29720 | 35894 ft | 476 kts | 337° |
| 2026-04-24 14:01 | 34.74084 | 44.27766 | 35893 ft | 475 kts | 337° |
| 2026-04-24 14:01 | 34.80486 | 44.25813 | 35906 ft | 475 kts | 337° |
| 2026-04-24 14:02 | 34.86926 | 44.23846 | 35899 ft | 474 kts | 337° |
| 2026-04-24 14:02 | 34.93305 | 44.21894 | 35899 ft | 474 kts | 337° |
| 2026-04-24 14:03 | 34.99713 | 44.19932 | 35901 ft | 474 kts | 337° |
| 2026-04-24 14:03 | 35.02905 | 44.18951 | 35635 ft | 473 kts | 337° |
| 2026-04-24 14:03 | 35.06103 | 44.17968 | 35785 ft | 475 kts | 337° |
| 2026-04-24 14:04 | 35.12478 | 44.16011 | 35867 ft | 475 kts | 337° |
| 2026-04-24 14:04 | 35.18884 | 44.14039 | 35892 ft | 473 kts | 337° |
| 2026-04-24 14:05 | 35.25248 | 44.12075 | 35906 ft | 474 kts | 337° |
| 2026-04-24 14:05 | 35.31681 | 44.10084 | 35903 ft | 474 kts | 337° |
| 2026-04-24 14:06 | 35.38069 | 44.08110 | 35915 ft | 474 kts | 337° |
| 2026-04-24 14:06 | 35.44449 | 44.06132 | 35911 ft | 474 kts | 337° |
| 2026-04-24 14:07 | 35.50789 | 44.04165 | 35915 ft | 473 kts | 338° |
| 2026-04-24 14:07 | 35.57147 | 44.02188 | 35911 ft | 471 kts | 337° |
| 2026-04-24 14:08 | 35.63524 | 44.00201 | 35930 ft | 473 kts | 337° |
| 2026-04-24 14:08 | 35.69897 | 43.98212 | 35926 ft | 472 kts | 337° |
| 2026-04-24 14:09 | 35.76270 | 43.96222 | 35939 ft | 471 kts | 337° |
| 2026-04-24 14:09 | 35.82612 | 43.94238 | 35934 ft | 471 kts | 337° |
| 2026-04-24 14:10 | 35.88912 | 43.92261 | 35935 ft | 470 kts | 337° |
| 2026-04-24 14:10 | 35.95269 | 43.90265 | 35925 ft | 468 kts | 337° |
| 2026-04-24 14:11 | 36.01593 | 43.88272 | 35933 ft | 469 kts | 338° |
| 2026-04-24 14:12 | 36.11071 | 43.85282 | 35923 ft | 470 kts | 338° |
| 2026-04-24 14:12 | 36.17413 | 43.83276 | 35919 ft | 471 kts | 337° |
| 2026-04-24 14:13 | 36.23760 | 43.81264 | 35920 ft | 470 kts | 337° |
| 2026-04-24 14:13 | 36.29960 | 43.78813 | 35925 ft | 464 kts | 331° |
| 2026-04-24 14:14 | 36.35875 | 43.75830 | 35926 ft | 462 kts | 329° |
| 2026-04-24 14:14 | 36.44738 | 43.71215 | 35932 ft | 462 kts | 329° |
| 2026-04-24 14:15 | 36.50657 | 43.68133 | 35936 ft | 461 kts | 329° |
| 2026-04-24 14:15 | 36.56573 | 43.65051 | 35941 ft | 461 kts | 329° |
| 2026-04-24 14:16 | 36.62497 | 43.61960 | 35943 ft | 461 kts | 329° |
| 2026-04-24 14:17 | 36.71379 | 43.57314 | 35960 ft | 462 kts | 329° |
| 2026-04-24 14:17 | 36.80183 | 43.52562 | 35981 ft | 461 kts | 327° |
| 2026-04-24 14:18 | 36.86023 | 43.49284 | 35992 ft | 460 kts | 327° |
| 2026-04-24 14:18 | 36.91833 | 43.46026 | 36013 ft | 460 kts | 327° |
| 2026-04-24 14:19 | 36.97696 | 43.42734 | 36022 ft | 460 kts | 327° |
| 2026-04-24 14:19 | 37.03523 | 43.39464 | 36031 ft | 460 kts | 327° |
| 2026-04-24 14:20 | 37.09338 | 43.36191 | 36036 ft | 460 kts | 327° |
| 2026-04-24 14:20 | 37.15187 | 43.32894 | 36046 ft | 458 kts | 327° |
| 2026-04-24 14:21 | 37.20993 | 43.29617 | 36048 ft | 459 kts | 327° |
| 2026-04-24 14:21 | 37.26775 | 43.26231 | 36040 ft | 455 kts | 322° |
| 2026-04-24 14:22 | 37.31950 | 43.21890 | 36047 ft | 441 kts | 312° |
| 2026-04-24 14:23 | 37.38111 | 43.13642 | 36048 ft | 428 kts | 299° |
| 2026-04-24 14:23 | 37.41155 | 43.07287 | 36060 ft | 422 kts | 292° |
| 2026-04-24 14:24 | 37.43918 | 43.00827 | 36067 ft | 422 kts | 292° |
| 2026-04-24 14:24 | 37.46677 | 42.94339 | 36053 ft | 421 kts | 292° |
| 2026-04-24 14:25 | 37.49424 | 42.87863 | 36063 ft | 421 kts | 292° |
| 2026-04-24 14:25 | 37.52169 | 42.81381 | 36058 ft | 422 kts | 292° |
| 2026-04-24 14:26 | 37.54923 | 42.74853 | 36059 ft | 422 kts | 292° |
| 2026-04-24 14:26 | 37.57658 | 42.68367 | 36052 ft | 421 kts | 292° |
| 2026-04-24 14:27 | 37.60415 | 42.61830 | 36053 ft | 422 kts | 292° |
| 2026-04-24 14:27 | 37.63153 | 42.55340 | 36045 ft | 423 kts | 292° |
| 2026-04-24 14:28 | 37.65902 | 42.48803 | 36051 ft | 423 kts | 292° |
| 2026-04-24 14:28 | 37.68655 | 42.42241 | 36053 ft | 423 kts | 292° |
| 2026-04-24 14:29 | 37.71401 | 42.35680 | 36038 ft | 422 kts | 292° |
| 2026-04-24 14:29 | 37.74113 | 42.29183 | 36030 ft | 422 kts | 291° |
| 2026-04-24 14:30 | 37.76856 | 42.22597 | 36023 ft | 423 kts | 292° |
| 2026-04-24 14:30 | 37.79575 | 42.16049 | 36017 ft | 422 kts | 291° |
| 2026-04-24 14:31 | 37.82294 | 42.09494 | 36007 ft | 422 kts | 291° |
| 2026-04-24 14:31 | 37.85006 | 42.02935 | 35997 ft | 423 kts | 291° |
| 2026-04-24 14:32 | 37.87735 | 41.96333 | 35978 ft | 423 kts | 292° |
| 2026-04-24 14:32 | 37.90743 | 41.89970 | 35975 ft | 427 kts | 296° |
| 2026-04-24 14:33 | 37.94264 | 41.83842 | 35963 ft | 432 kts | 301° |
| 2026-04-24 14:33 | 37.98193 | 41.78027 | 35948 ft | 436 kts | 303° |
| 2026-04-24 14:34 | 38.02188 | 41.72275 | 35936 ft | 437 kts | 303° |
| 2026-04-24 14:34 | 38.06184 | 41.66522 | 35940 ft | 436 kts | 304° |
| 2026-04-24 14:35 | 38.10175 | 41.60767 | 35950 ft | 436 kts | 304° |
| 2026-04-24 14:35 | 38.14190 | 41.54967 | 35958 ft | 437 kts | 303° |
| 2026-04-24 14:36 | 38.18190 | 41.49178 | 35966 ft | 437 kts | 303° |
| 2026-04-24 14:36 | 38.22199 | 41.43362 | 35965 ft | 436 kts | 303° |
| 2026-04-24 14:37 | 38.26172 | 41.37592 | 35962 ft | 436 kts | 303° |
| 2026-04-24 14:37 | 38.30164 | 41.31778 | 35959 ft | 435 kts | 303° |
| 2026-04-24 14:38 | 38.34125 | 41.26001 | 35958 ft | 435 kts | 303° |
| 2026-04-24 14:38 | 38.38096 | 41.20197 | 35957 ft | 436 kts | 303° |
| 2026-04-24 14:39 | 38.42073 | 41.14372 | 35963 ft | 435 kts | 303° |
| 2026-04-24 14:39 | 38.46023 | 41.08575 | 35962 ft | 435 kts | 303° |
| 2026-04-24 14:40 | 38.49912 | 41.02713 | 35963 ft | 435 kts | 302° |
| 2026-04-24 14:40 | 38.53768 | 40.96800 | 35965 ft | 434 kts | 301° |
| 2026-04-24 14:41 | 38.57624 | 40.90879 | 35972 ft | 435 kts | 302° |
| 2026-04-24 14:41 | 38.61485 | 40.84950 | 35976 ft | 434 kts | 302° |
| 2026-04-24 14:42 | 38.65341 | 40.79078 | 35972 ft | 435 kts | 302° |
| 2026-04-24 14:42 | 38.69259 | 40.73183 | 35970 ft | 434 kts | 302° |
| 2026-04-24 14:43 | 38.73172 | 40.67278 | 35965 ft | 435 kts | 302° |
| 2026-04-24 14:43 | 38.77070 | 40.61372 | 35969 ft | 434 kts | 302° |
| 2026-04-24 14:44 | 38.80955 | 40.55476 | 35969 ft | 434 kts | 302° |
| 2026-04-24 14:44 | 38.84823 | 40.49593 | 35968 ft | 434 kts | 302° |
| 2026-04-24 14:45 | 38.88691 | 40.43697 | 35969 ft | 432 kts | 302° |
| 2026-04-24 14:45 | 38.92567 | 40.37776 | 35972 ft | 433 kts | 302° |
| 2026-04-24 14:46 | 38.96415 | 40.31889 | 35975 ft | 432 kts | 302° |
| 2026-04-24 14:46 | 39.00244 | 40.26016 | 35967 ft | 431 kts | 302° |
| 2026-04-24 14:47 | 39.04087 | 40.20116 | 35973 ft | 431 kts | 301° |
| 2026-04-24 14:47 | 39.07906 | 40.14237 | 35969 ft | 429 kts | 302° |
| 2026-04-24 14:48 | 39.11726 | 40.08340 | 35961 ft | 429 kts | 301° |
| 2026-04-24 14:48 | 39.15544 | 40.02438 | 35965 ft | 430 kts | 302° |
| 2026-04-24 14:49 | 39.19372 | 39.96514 | 35961 ft | 432 kts | 302° |
| 2026-04-24 14:49 | 39.23219 | 39.90557 | 36165 ft | 435 kts | 301° |
| 2026-04-24 14:49 | 39.25134 | 39.87585 | 36547 ft | 431 kts | 302° |
| 2026-04-24 14:50 | 39.27044 | 39.84621 | 36985 ft | 428 kts | 302° |
| 2026-04-24 14:50 | 39.28946 | 39.81662 | 37337 ft | 427 kts | 302° |
| 2026-04-24 14:50 | 39.30824 | 39.78734 | 37631 ft | 427 kts | 301° |
| 2026-04-24 14:50 | 39.32703 | 39.75805 | 37864 ft | 427 kts | 302° |
| 2026-04-24 14:51 | 39.34606 | 39.72831 | 37957 ft | 428 kts | 302° |
| 2026-04-24 14:51 | 39.38392 | 39.66909 | 37944 ft | 427 kts | 302° |
| 2026-04-24 14:52 | 39.42144 | 39.61034 | 37932 ft | 427 kts | 302° |
| 2026-04-24 14:52 | 39.45918 | 39.55106 | 37942 ft | 427 kts | 302° |
| 2026-04-24 14:53 | 39.49694 | 39.49163 | 37933 ft | 428 kts | 302° |
| 2026-04-24 14:53 | 39.53421 | 39.43249 | 37936 ft | 427 kts | 301° |
| 2026-04-24 14:54 | 39.57165 | 39.37221 | 37953 ft | 427 kts | 301° |
| 2026-04-24 14:54 | 39.60854 | 39.31269 | 37934 ft | 428 kts | 301° |
| 2026-04-24 14:55 | 39.64571 | 39.25261 | 37947 ft | 427 kts | 301° |
| 2026-04-24 14:55 | 39.68290 | 39.19231 | 37931 ft | 427 kts | 301° |
| 2026-04-24 14:56 | 39.71995 | 39.13218 | 37942 ft | 428 kts | 301° |
| 2026-04-24 14:56 | 39.75747 | 39.07219 | 37951 ft | 428 kts | 301° |
| 2026-04-24 14:57 | 39.79497 | 39.01265 | 37975 ft | 430 kts | 302° |
| 2026-04-24 14:57 | 39.83299 | 38.95202 | 37984 ft | 432 kts | 301° |
| 2026-04-24 14:58 | 39.87053 | 38.89199 | 37999 ft | 432 kts | 302° |
| 2026-04-24 14:58 | 39.90827 | 38.83146 | 37988 ft | 431 kts | 301° |
| 2026-04-24 14:59 | 39.94599 | 38.77084 | 38003 ft | 432 kts | 301° |
| 2026-04-24 14:59 | 39.98382 | 38.70992 | 38008 ft | 432 kts | 302° |
| 2026-04-24 15:00 | 40.02155 | 38.64905 | 38011 ft | 434 kts | 302° |
| 2026-04-24 15:00 | 40.05928 | 38.58804 | 38004 ft | 434 kts | 302° |
| 2026-04-24 15:01 | 40.09713 | 38.52676 | 38002 ft | 434 kts | 302° |
| 2026-04-24 15:01 | 40.13512 | 38.46506 | 38013 ft | 436 kts | 302° |
| 2026-04-24 15:02 | 40.17285 | 38.40371 | 38012 ft | 437 kts | 302° |
| 2026-04-24 15:02 | 40.21072 | 38.34197 | 38020 ft | 437 kts | 301° |
| 2026-04-24 15:03 | 40.24873 | 38.27982 | 38046 ft | 437 kts | 302° |
| 2026-04-24 15:03 | 40.28588 | 38.21748 | 38008 ft | 436 kts | 299° |
| 2026-04-24 15:04 | 40.31890 | 38.15133 | 38025 ft | 432 kts | 294° |
| 2026-04-24 15:04 | 40.34668 | 38.08242 | 38014 ft | 428 kts | 289° |
| 2026-04-24 15:05 | 40.36976 | 38.01090 | 38002 ft | 427 kts | 287° |
| 2026-04-24 15:05 | 40.39151 | 37.93879 | 37999 ft | 428 kts | 286° |
| 2026-04-24 15:06 | 40.41327 | 37.86626 | 37978 ft | 428 kts | 287° |
| 2026-04-24 15:06 | 40.43492 | 37.79398 | 37974 ft | 429 kts | 287° |
| 2026-04-24 15:07 | 40.45663 | 37.72119 | 37981 ft | 429 kts | 287° |
| 2026-04-24 15:07 | 40.47842 | 37.64810 | 37983 ft | 431 kts | 287° |
| 2026-04-24 15:08 | 40.50003 | 37.57545 | 37973 ft | 430 kts | 287° |
| 2026-04-24 15:08 | 40.52175 | 37.50220 | 37983 ft | 432 kts | 287° |
| 2026-04-24 15:09 | 40.54336 | 37.42900 | 37961 ft | 431 kts | 287° |
| 2026-04-24 15:09 | 40.56503 | 37.35537 | 37966 ft | 433 kts | 288° |
| 2026-04-24 15:10 | 40.58674 | 37.28141 | 37976 ft | 433 kts | 287° |
| 2026-04-24 15:10 | 40.60831 | 37.20770 | 37987 ft | 434 kts | 287° |
| 2026-04-24 15:11 | 40.62991 | 37.13374 | 37968 ft | 435 kts | 287° |
| 2026-04-24 15:11 | 40.65147 | 37.05965 | 37977 ft | 435 kts | 287° |
| 2026-04-24 15:12 | 40.67304 | 36.98531 | 37980 ft | 436 kts | 287° |
| 2026-04-24 15:12 | 40.70520 | 36.87403 | 37977 ft | 436 kts | 287° |
| 2026-04-24 15:13 | 40.72658 | 36.79974 | 37964 ft | 436 kts | 287° |
| 2026-04-24 15:13 | 40.74788 | 36.72539 | 37988 ft | 436 kts | 287° |
| 2026-04-24 15:14 | 40.76929 | 36.65073 | 37982 ft | 436 kts | 287° |
| 2026-04-24 15:14 | 40.79076 | 36.57581 | 37998 ft | 437 kts | 288° |
| 2026-04-24 15:15 | 40.81202 | 36.50129 | 38016 ft | 437 kts | 288° |
| 2026-04-24 15:15 | 40.83329 | 36.42643 | 38004 ft | 439 kts | 287° |
| 2026-04-24 15:16 | 40.85471 | 36.35078 | 38005 ft | 439 kts | 288° |
| 2026-04-24 15:16 | 40.87588 | 36.27570 | 38011 ft | 438 kts | 287° |
| 2026-04-24 15:17 | 40.89710 | 36.20036 | 38005 ft | 438 kts | 287° |
| 2026-04-24 15:17 | 40.91810 | 36.12544 | 38003 ft | 438 kts | 287° |
| 2026-04-24 15:18 | 40.93917 | 36.05008 | 37988 ft | 439 kts | 287° |
| 2026-04-24 15:18 | 40.96031 | 35.97444 | 37992 ft | 439 kts | 287° |
| 2026-04-24 15:19 | 40.98137 | 35.89875 | 37981 ft | 440 kts | 287° |
| 2026-04-24 15:19 | 41.00243 | 35.82301 | 37975 ft | 440 kts | 287° |
| 2026-04-24 15:20 | 41.02332 | 35.74769 | 38005 ft | 440 kts | 287° |
| 2026-04-24 15:20 | 41.04438 | 35.67149 | 37980 ft | 439 kts | 287° |
| 2026-04-24 15:21 | 41.06520 | 35.59585 | 37984 ft | 442 kts | 288° |
| 2026-04-24 15:21 | 41.08619 | 35.51933 | 37985 ft | 443 kts | 288° |
| 2026-04-24 15:22 | 41.10711 | 35.44289 | 37980 ft | 442 kts | 288° |
| 2026-04-24 15:23 | 41.13840 | 35.32806 | 37990 ft | 443 kts | 287° |
| 2026-04-24 15:23 | 41.16949 | 35.21330 | 37990 ft | 442 kts | 287° |
| 2026-04-24 15:25 | 41.22115 | 35.02163 | 37977 ft | 442 kts | 288° |
| 2026-04-24 15:26 | 41.27236 | 34.83007 | 37969 ft | 443 kts | 288° |
| 2026-04-24 15:27 | 41.33393 | 34.59866 | 37967 ft | 444 kts | 288° |
| 2026-04-24 15:29 | 41.39490 | 34.36684 | 37982 ft | 444 kts | 288° |
| 2026-04-24 15:31 | 41.46503 | 34.09597 | 38000 ft | 443 kts | 288° |
| 2026-04-24 15:33 | 41.54489 | 33.78463 | 37993 ft | 444 kts | 288° |
| 2026-04-24 15:34 | 41.59413 | 33.59032 | 37998 ft | 444 kts | 288° |
| 2026-04-24 15:35 | 41.64335 | 33.39512 | 38008 ft | 446 kts | 288° |
| 2026-04-24 15:36 | 41.66302 | 33.31646 | 38009 ft | 446 kts | 288° |
| 2026-04-24 15:36 | 41.69227 | 33.19897 | 38003 ft | 445 kts | 288° |
| 2026-04-24 15:37 | 41.71159 | 33.12087 | 38003 ft | 445 kts | 288° |
| 2026-04-24 15:37 | 41.73095 | 33.04248 | 37970 ft | 445 kts | 288° |
| 2026-04-24 15:38 | 41.75040 | 32.96368 | 38002 ft | 446 kts | 288° |
| 2026-04-24 15:38 | 41.76964 | 32.88542 | 38016 ft | 447 kts | 288° |
| 2026-04-24 15:39 | 41.78902 | 32.80615 | 38009 ft | 448 kts | 288° |
| 2026-04-24 15:39 | 41.80822 | 32.72747 | 38015 ft | 448 kts | 288° |
| 2026-04-24 15:40 | 41.82749 | 32.64824 | 38025 ft | 449 kts | 288° |
| 2026-04-24 15:40 | 41.84669 | 32.56890 | 38024 ft | 449 kts | 288° |
| 2026-04-24 15:41 | 41.86585 | 32.48937 | 38034 ft | 449 kts | 288° |
| 2026-04-24 15:41 | 41.88496 | 32.40954 | 38034 ft | 450 kts | 288° |
| 2026-04-24 15:42 | 41.90390 | 32.33014 | 38042 ft | 450 kts | 288° |
| 2026-04-24 15:42 | 41.92311 | 32.25042 | 38044 ft | 450 kts | 288° |
| 2026-04-24 15:43 | 41.94211 | 32.17096 | 38052 ft | 450 kts | 288° |
| 2026-04-24 15:43 | 41.96102 | 32.09121 | 38043 ft | 451 kts | 288° |
| 2026-04-24 15:44 | 41.98002 | 32.01064 | 38045 ft | 452 kts | 288° |
| 2026-04-24 15:44 | 41.99888 | 31.93027 | 38040 ft | 454 kts | 288° |
| 2026-04-24 15:45 | 42.01769 | 31.85016 | 38039 ft | 453 kts | 289° |
| 2026-04-24 15:45 | 42.03670 | 31.76913 | 38026 ft | 453 kts | 289° |
| 2026-04-24 15:46 | 42.05543 | 31.68900 | 38037 ft | 453 kts | 289° |
| 2026-04-24 15:46 | 42.07418 | 31.60829 | 38026 ft | 454 kts | 289° |
| 2026-04-24 15:47 | 42.09295 | 31.52717 | 38021 ft | 455 kts | 289° |
| 2026-04-24 15:47 | 42.11163 | 31.44611 | 38024 ft | 455 kts | 289° |
| 2026-04-24 15:48 | 42.13032 | 31.36483 | 38029 ft | 455 kts | 289° |
| 2026-04-24 15:48 | 42.14899 | 31.28357 | 38022 ft | 456 kts | 288° |
| 2026-04-24 15:49 | 42.16756 | 31.20235 | 38020 ft | 457 kts | 289° |
| 2026-04-24 15:49 | 42.18615 | 31.12067 | 38023 ft | 458 kts | 289° |
| 2026-04-24 15:50 | 42.20477 | 31.03850 | 38021 ft | 459 kts | 289° |
| 2026-04-24 15:50 | 42.22321 | 30.95680 | 38013 ft | 459 kts | 289° |
| 2026-04-24 15:51 | 42.24169 | 30.87451 | 38016 ft | 459 kts | 289° |
| 2026-04-24 15:51 | 42.26012 | 30.79226 | 38001 ft | 460 kts | 289° |
| 2026-04-24 15:52 | 42.27843 | 30.71016 | 38002 ft | 460 kts | 289° |
| 2026-04-24 15:52 | 42.29678 | 30.62767 | 37999 ft | 460 kts | 289° |
| 2026-04-24 15:53 | 42.31510 | 30.54491 | 38005 ft | 460 kts | 289° |
| 2026-04-24 15:53 | 42.33331 | 30.46238 | 38010 ft | 462 kts | 289° |
| 2026-04-24 15:54 | 42.35148 | 30.37963 | 38011 ft | 462 kts | 289° |
| 2026-04-24 15:54 | 42.36962 | 30.29673 | 38000 ft | 462 kts | 289° |
| 2026-04-24 15:55 | 42.38773 | 30.21366 | 38008 ft | 462 kts | 289° |
| 2026-04-24 15:55 | 42.40583 | 30.13029 | 38016 ft | 463 kts | 289° |
| 2026-04-24 15:56 | 42.42384 | 30.04692 | 38024 ft | 463 kts | 289° |
| 2026-04-24 15:56 | 42.44179 | 29.96351 | 38014 ft | 463 kts | 289° |
| 2026-04-24 15:57 | 42.46100 | 29.88072 | 38010 ft | 462 kts | 293° |
| 2026-04-24 15:57 | 42.48558 | 29.80066 | 38004 ft | 461 kts | 298° |
| 2026-04-24 15:58 | 42.51229 | 29.72237 | 38005 ft | 460 kts | 298° |
| 2026-04-24 15:58 | 42.53898 | 29.64416 | 38001 ft | 460 kts | 298° |
| 2026-04-24 15:59 | 42.56573 | 29.56537 | 38002 ft | 461 kts | 298° |
| 2026-04-24 15:59 | 42.59255 | 29.48612 | 37999 ft | 462 kts | 298° |
| 2026-04-24 16:00 | 42.61910 | 29.40738 | 38004 ft | 462 kts | 298° |
| 2026-04-24 16:00 | 42.64560 | 29.32859 | 38003 ft | 462 kts | 297° |
| 2026-04-24 16:01 | 42.67230 | 29.24898 | 38007 ft | 463 kts | 297° |
| 2026-04-24 16:01 | 42.69883 | 29.16958 | 38006 ft | 463 kts | 298° |
| 2026-04-24 16:02 | 42.72524 | 29.09035 | 38009 ft | 463 kts | 298° |
| 2026-04-24 16:02 | 42.75172 | 29.01072 | 38000 ft | 464 kts | 298° |
| 2026-04-24 16:03 | 42.77803 | 28.93132 | 38001 ft | 463 kts | 298° |
| 2026-04-24 16:03 | 42.80446 | 28.85130 | 38007 ft | 464 kts | 298° |
| 2026-04-24 16:04 | 42.83073 | 28.77152 | 37991 ft | 464 kts | 298° |
| 2026-04-24 16:04 | 42.85712 | 28.69122 | 37991 ft | 464 kts | 298° |
| 2026-04-24 16:05 | 42.89645 | 28.57099 | 37983 ft | 464 kts | 298° |
| 2026-04-24 16:06 | 42.93572 | 28.45048 | 37978 ft | 465 kts | 298° |
| 2026-04-24 16:07 | 42.97482 | 28.32989 | 37974 ft | 465 kts | 298° |
| 2026-04-24 16:07 | 43.01380 | 28.20917 | 37973 ft | 465 kts | 298° |
| 2026-04-24 16:08 | 43.05256 | 28.08854 | 37966 ft | 464 kts | 298° |
| 2026-04-24 16:09 | 43.09135 | 27.96726 | 37971 ft | 465 kts | 298° |
| 2026-04-24 16:09 | 43.11715 | 27.88633 | 37969 ft | 466 kts | 298° |
| 2026-04-24 16:11 | 43.18133 | 27.68387 | 37968 ft | 465 kts | 298° |
| 2026-04-24 16:11 | 43.20691 | 27.60279 | 37972 ft | 466 kts | 298° |
| 2026-04-24 16:12 | 43.24524 | 27.48072 | 37979 ft | 466 kts | 298° |
| 2026-04-24 16:13 | 43.28349 | 27.35837 | 37977 ft | 467 kts | 298° |
| 2026-04-24 16:14 | 43.33431 | 27.19490 | 37993 ft | 468 kts | 297° |
| 2026-04-24 16:14 | 43.37228 | 27.07209 | 37986 ft | 468 kts | 297° |
| 2026-04-24 16:15 | 43.41016 | 26.94900 | 37981 ft | 467 kts | 297° |
| 2026-04-24 16:16 | 43.44787 | 26.82591 | 37978 ft | 468 kts | 297° |
| 2026-04-24 16:17 | 43.51064 | 26.61967 | 37978 ft | 469 kts | 297° |
| 2026-04-24 16:18 | 43.56054 | 26.45449 | 37974 ft | 468 kts | 297° |
| 2026-04-24 16:19 | 43.59792 | 26.33010 | 37969 ft | 469 kts | 297° |
| 2026-04-24 16:20 | 43.63500 | 26.20604 | 37968 ft | 470 kts | 297° |
| 2026-04-24 16:20 | 43.67209 | 26.08133 | 37953 ft | 470 kts | 297° |
| 2026-04-24 16:21 | 43.70909 | 25.95627 | 37946 ft | 470 kts | 297° |
| 2026-04-24 16:22 | 43.73375 | 25.87251 | 37948 ft | 470 kts | 297° |
| 2026-04-24 16:22 | 43.77103 | 25.74797 | 37950 ft | 471 kts | 298° |
| 2026-04-24 16:23 | 43.79668 | 25.66448 | 37945 ft | 471 kts | 298° |
| 2026-04-24 16:24 | 43.83471 | 25.53977 | 37939 ft | 471 kts | 297° |
| 2026-04-24 16:24 | 43.85990 | 25.45665 | 37942 ft | 471 kts | 297° |
| 2026-04-24 16:25 | 43.88521 | 25.37279 | 37942 ft | 471 kts | 297° |
| 2026-04-24 16:25 | 43.91027 | 25.28945 | 37946 ft | 473 kts | 297° |
| 2026-04-24 16:26 | 43.94799 | 25.16352 | 37934 ft | 473 kts | 297° |
| 2026-04-24 16:27 | 43.98561 | 25.03733 | 37937 ft | 474 kts | 297° |
| 2026-04-24 16:27 | 44.01062 | 24.95305 | 37935 ft | 473 kts | 296° |
| 2026-04-24 16:28 | 44.03556 | 24.86869 | 37937 ft | 473 kts | 297° |
| 2026-04-24 16:28 | 44.07270 | 24.74258 | 37939 ft | 473 kts | 296° |
| 2026-04-24 16:29 | 44.09751 | 24.65806 | 37942 ft | 474 kts | 297° |
| 2026-04-24 16:30 | 44.14689 | 24.48890 | 37945 ft | 475 kts | 296° |
| 2026-04-24 16:30 | 44.17166 | 24.40360 | 37950 ft | 474 kts | 296° |
| 2026-04-24 16:31 | 44.19611 | 24.31908 | 37946 ft | 474 kts | 296° |
| 2026-04-24 16:31 | 44.22075 | 24.23366 | 37940 ft | 474 kts | 296° |
| 2026-04-24 16:32 | 44.24504 | 24.14916 | 37943 ft | 474 kts | 296° |
| 2026-04-24 16:32 | 44.26949 | 24.06388 | 37943 ft | 474 kts | 296° |
| 2026-04-24 16:33 | 44.29383 | 23.97863 | 37953 ft | 475 kts | 296° |
| 2026-04-24 16:33 | 44.31820 | 23.89293 | 37957 ft | 475 kts | 296° |
| 2026-04-24 16:34 | 44.34244 | 23.80741 | 37954 ft | 475 kts | 296° |
| 2026-04-24 16:34 | 44.36649 | 23.72230 | 37954 ft | 474 kts | 296° |
| 2026-04-24 16:35 | 44.39064 | 23.63654 | 37955 ft | 474 kts | 296° |
| 2026-04-24 16:35 | 44.41457 | 23.55128 | 37946 ft | 474 kts | 296° |
| 2026-04-24 16:36 | 44.43856 | 23.46548 | 37947 ft | 475 kts | 296° |
| 2026-04-24 16:36 | 44.46247 | 23.37967 | 37960 ft | 475 kts | 296° |
| 2026-04-24 16:37 | 44.48625 | 23.29407 | 37959 ft | 475 kts | 295° |
| 2026-04-24 16:37 | 44.51015 | 23.20773 | 37956 ft | 475 kts | 295° |
| 2026-04-24 16:38 | 44.53381 | 23.12186 | 37956 ft | 475 kts | 295° |
| 2026-04-24 16:38 | 44.55740 | 23.03596 | 37959 ft | 476 kts | 295° |
| 2026-04-24 16:39 | 44.58104 | 22.94964 | 37962 ft | 475 kts | 295° |
| 2026-04-24 16:39 | 44.60465 | 22.86309 | 37959 ft | 475 kts | 295° |
| 2026-04-24 16:40 | 44.62808 | 22.77694 | 37962 ft | 475 kts | 295° |
| 2026-04-24 16:40 | 44.65151 | 22.69043 | 37964 ft | 475 kts | 295° |
| 2026-04-24 16:41 | 44.67483 | 22.60397 | 37971 ft | 476 kts | 295° |
| 2026-04-24 16:41 | 44.69799 | 22.51782 | 37976 ft | 475 kts | 295° |
| 2026-04-24 16:42 | 44.72115 | 22.43143 | 37981 ft | 475 kts | 296° |
| 2026-04-24 16:42 | 44.74427 | 22.34485 | 37990 ft | 475 kts | 295° |
| 2026-04-24 16:43 | 44.76753 | 22.25741 | 38001 ft | 477 kts | 295° |
| 2026-04-24 16:43 | 44.79058 | 22.17043 | 38001 ft | 477 kts | 295° |
| 2026-04-24 16:44 | 44.81357 | 22.08330 | 38006 ft | 476 kts | 295° |
| 2026-04-24 16:44 | 44.83647 | 21.99621 | 38012 ft | 475 kts | 295° |
| 2026-04-24 16:45 | 44.85935 | 21.90896 | 38017 ft | 475 kts | 295° |
| 2026-04-24 16:45 | 44.88199 | 21.82224 | 38021 ft | 476 kts | 295° |
| 2026-04-24 16:46 | 44.90471 | 21.73484 | 38022 ft | 476 kts | 295° |
| 2026-04-24 16:46 | 44.92749 | 21.64691 | 38019 ft | 477 kts | 295° |
| 2026-04-24 16:47 | 44.95005 | 21.55941 | 38024 ft | 477 kts | 295° |
| 2026-04-24 16:47 | 44.97247 | 21.47220 | 38024 ft | 476 kts | 295° |
| 2026-04-24 16:48 | 44.99797 | 21.38595 | 38022 ft | 473 kts | 301° |
| 2026-04-24 16:48 | 45.02782 | 21.30418 | 38022 ft | 472 kts | 302° |
| 2026-04-24 16:49 | 45.05861 | 21.22194 | 38018 ft | 472 kts | 302° |
| 2026-04-24 16:49 | 45.08913 | 21.14010 | 38012 ft | 473 kts | 302° |
| 2026-04-24 16:50 | 45.11960 | 21.05795 | 38011 ft | 472 kts | 302° |
| 2026-04-24 16:50 | 45.14997 | 20.97577 | 38013 ft | 472 kts | 302° |
| 2026-04-24 16:51 | 45.17970 | 20.89508 | 38016 ft | 472 kts | 302° |
| 2026-04-24 16:51 | 45.21004 | 20.81247 | 38013 ft | 473 kts | 302° |
| 2026-04-24 16:52 | 45.24011 | 20.73034 | 38010 ft | 473 kts | 302° |
| 2026-04-24 16:52 | 45.26984 | 20.64888 | 38011 ft | 473 kts | 302° |
| 2026-04-24 16:53 | 45.29976 | 20.56666 | 38011 ft | 473 kts | 302° |
| 2026-04-24 16:53 | 45.32986 | 20.48369 | 38011 ft | 473 kts | 302° |
| 2026-04-24 16:54 | 45.35973 | 20.40104 | 38012 ft | 473 kts | 302° |
| 2026-04-24 16:54 | 45.38979 | 20.31760 | 38012 ft | 473 kts | 301° |
| 2026-04-24 16:55 | 45.41964 | 20.23478 | 38011 ft | 473 kts | 302° |
| 2026-04-24 16:55 | 45.45182 | 20.15336 | 38017 ft | 472 kts | 304° |
| 2026-04-24 16:56 | 45.48422 | 20.07268 | 38015 ft | 471 kts | 304° |
| 2026-04-24 16:56 | 45.51669 | 19.99147 | 38015 ft | 471 kts | 304° |
| 2026-04-24 16:57 | 45.54881 | 19.91085 | 38017 ft | 472 kts | 304° |
| 2026-04-24 16:57 | 45.58102 | 19.82965 | 38017 ft | 472 kts | 304° |
| 2026-04-24 16:58 | 45.61309 | 19.74855 | 38019 ft | 472 kts | 304° |
| 2026-04-24 16:58 | 45.64526 | 19.66696 | 38020 ft | 472 kts | 304° |
| 2026-04-24 16:59 | 45.67720 | 19.58568 | 37984 ft | 471 kts | 304° |
| 2026-04-24 17:00 | 45.72499 | 19.46365 | 38034 ft | 470 kts | 304° |
| 2026-04-24 17:00 | 45.77272 | 19.34128 | 38019 ft | 470 kts | 303° |
| 2026-04-24 17:01 | 45.82018 | 19.21897 | 38021 ft | 470 kts | 303° |
| 2026-04-24 17:02 | 45.86749 | 19.09649 | 38020 ft | 470 kts | 303° |
| 2026-04-24 17:02 | 45.89891 | 19.01479 | 38023 ft | 471 kts | 303° |
| 2026-04-24 17:03 | 45.94654 | 18.89213 | 38020 ft | 469 kts | 305° |
| 2026-04-24 17:04 | 45.97979 | 18.81219 | 38022 ft | 468 kts | 306° |
| 2026-04-24 17:04 | 46.02954 | 18.69211 | 38024 ft | 468 kts | 306° |
| 2026-04-24 17:05 | 46.06260 | 18.61164 | 38023 ft | 468 kts | 306° |
| 2026-04-24 17:06 | 46.11215 | 18.49038 | 38027 ft | 468 kts | 306° |
| 2026-04-24 17:06 | 46.16133 | 18.36945 | 38032 ft | 469 kts | 305° |
| 2026-04-24 17:07 | 46.19431 | 18.28802 | 38033 ft | 469 kts | 305° |
| 2026-04-24 17:08 | 46.25959 | 18.12620 | 38036 ft | 469 kts | 305° |
| 2026-04-24 17:08 | 46.29236 | 18.04459 | 38040 ft | 468 kts | 304° |
| 2026-04-24 17:09 | 46.35726 | 17.88224 | 38037 ft | 468 kts | 304° |
| 2026-04-24 17:10 | 46.42202 | 17.71930 | 38035 ft | 469 kts | 304° |
| 2026-04-24 17:12 | 46.55088 | 17.39211 | 38037 ft | 468 kts | 304° |